Time;durP1;ratioP1;P1;durP2;ratioP2;P2;SDS_P1;SDS_P2;PMS_P1;PMS_P2;Temp;Humidity;BMP_temperature;BMP_pressure;BME280_temperature;BME280_humidity;BME280_pressure;Samples;Min_cycle;Max_cycle;Signal;HPM_P1;HPM_P2
2021/04/17 00:01:17;;;;;;;13.88;5.15;;;30.70;79.30;;;;;;5104203;28;20042;-43
2021/04/17 00:03:44;;;;;;;9.63;5.32;;;30.70;79.40;;;;;;5088431;28;20071;-48
2021/04/17 00:06:11;;;;;;;15.05;5.22;;;30.60;79.30;;;;;;5084888;28;20039;-44
2021/04/17 00:08:38;;;;;;;13.70;4.82;;;30.60;79.20;;;;;;5084680;28;20100;-44
2021/04/17 00:11:05;;;;;;;8.20;4.70;;;30.50;79.10;;;;;;5087381;28;20264;-50
2021/04/17 00:13:32;;;;;;;15.35;8.10;;;30.50;79.70;;;;;;5084543;28;20052;-55
2021/04/17 00:15:59;;;;;;;17.20;12.70;;;30.40;79.90;;;;;;5084144;28;20036;-49
2021/04/17 00:18:26;;;;;;;11.13;6.32;;;30.40;79.80;;;;;;5084490;28;20046;-52
2021/04/17 00:20:52;;;;;;;9.43;4.05;;;30.30;79.90;;;;;;5066775;28;20068;-50
2021/04/17 00:23:19;;;;;;;12.13;4.30;;;30.20;80.10;;;;;;5066812;28;20028;-49
2021/04/17 00:25:45;;;;;;;12.43;4.97;;;30.20;80.40;;;;;;5083272;28;20080;-47
2021/04/17 00:28:13;;;;;;;10.05;4.35;;;30.20;80.30;;;;;;5066941;28;20313;-51
2021/04/17 00:30:40;;;;;;;15.13;6.03;;;30.10;80.10;;;;;;5084201;28;20028;-51
2021/04/17 00:33:06;;;;;;;11.68;6.05;;;30.10;80.20;;;;;;5098207;28;20032;-57
2021/04/17 00:35:33;;;;;;;12.15;6.78;;;30.20;80.00;;;;;;5104629;28;20181;-52
2021/04/17 00:38:00;;;;;;;15.18;5.30;;;30.10;79.80;;;;;;5103869;28;20016;-50
2021/04/17 00:40:27;;;;;;;16.83;4.38;;;30.00;79.50;;;;;;5104224;28;20058;-55
2021/04/17 00:42:54;;;;;;;10.73;3.55;;;30.00;79.90;;;;;;5086382;28;20024;-49
2021/04/17 00:45:20;;;;;;;14.20;3.08;;;29.90;80.50;;;;;;5104363;28;20031;-56
2021/04/17 00:47:47;;;;;;;31.45;20.10;;;29.80;80.70;;;;;;5104295;28;20136;-46
2021/04/17 00:50:15;;;;;;;13.50;5.80;;;29.80;80.80;;;;;;5104293;28;20308;-45
2021/04/17 00:52:42;;;;;;;11.40;4.30;;;29.70;80.50;;;;;;5104163;28;20216;-49
2021/04/17 00:55:10;;;;;;;12.75;3.50;;;29.70;80.70;;;;;;5103971;28;20031;-45
2021/04/17 00:57:37;;;;;;;15.90;4.20;;;29.70;80.60;;;;;;5086033;28;20209;-43
2021/04/17 01:00:08;;;;;;;17.27;5.53;;;29.70;80.60;;;;;;5103388;28;20024;-48
2021/04/17 01:02:39;;;;;;;16.80;8.97;;;29.70;80.30;;;;;;5085470;28;20048;-48
2021/04/17 01:05:12;;;;;;;19.38;12.32;;;29.70;80.60;;;;;;5104129;28;20027;-49
2021/04/17 01:07:51;;;;;;;21.73;9.50;;;29.70;80.30;;;;;;5104404;28;20035;-51
2021/04/17 01:10:33;;;;;;;19.02;11.48;;;29.70;80.30;;;;;;5104169;28;20051;-48
2021/04/17 01:13:00;;;;;;;19.75;12.77;;;29.70;80.10;;;;;;5104035;28;20119;-49
2021/04/17 01:15:28;;;;;;;18.40;10.80;;;29.70;79.90;;;;;;5103994;28;20046;-52
2021/04/17 01:17:57;;;;;;;19.70;12.55;;;29.60;79.70;;;;;;5104071;28;20051;-53
2021/04/17 01:20:33;;;;;;;12.05;8.98;;;29.60;79.70;;;;;;5103884;28;20332;-46
2021/04/17 01:23:18;;;;;;;15.20;11.80;;;29.60;79.70;;;;;;5104322;28;20031;-48
2021/04/17 01:25:48;;;;;;;18.45;11.55;;;29.60;79.60;;;;;;5104111;28;20030;-46
2021/04/17 01:28:18;;;;;;;19.23;8.00;;;29.60;79.80;;;;;;5086083;28;20055;-48
2021/04/17 01:30:47;;;;;;;13.50;6.80;;;29.60;79.80;;;;;;5103958;28;20020;-47
2021/04/17 01:33:16;;;;;;;13.60;5.90;;;29.60;79.90;;;;;;5103976;28;20020;-52
2021/04/17 01:35:45;;;;;;;13.70;4.72;;;29.60;80.00;;;;;;5119677;28;20087;-49
2021/04/17 01:38:39;;;;;;;10.35;4.32;;;29.60;79.70;;;;;;5103900;28;20028;-49
2021/04/17 01:41:37;;;;;;;11.75;4.38;;;29.50;79.30;;;;;;5103892;28;20036;-47
2021/04/17 01:44:14;;;;;;;24.83;4.28;;;29.50;79.80;;;;;;5085140;28;20039;-54
2021/04/17 01:46:48;;;;;;;88.60;8.88;;;29.50;79.40;;;;;;5104087;28;20015;-51
2021/04/17 01:49:17;;;;;;;37.35;5.82;;;29.40;79.30;;;;;;5104168;28;20065;-53
2021/04/17 01:51:46;;;;;;;30.77;5.20;;;29.40;79.20;;;;;;5068724;28;20353;-46
2021/04/17 01:54:26;;;;;;;22.48;4.35;;;29.40;78.70;;;;;;5069738;28;20031;-52
2021/04/17 01:56:56;;;;;;;21.00;6.05;;;29.40;79.50;;;;;;5064931;28;20020;-47
2021/04/17 01:59:24;;;;;;;21.52;6.00;;;29.40;78.60;;;;;;5083393;28;20021;-51
2021/04/17 02:01:51;;;;;;;41.10;16.00;;;29.40;78.50;;;;;;5065775;28;20017;-51
2021/04/17 02:04:19;;;;;;;32.90;10.32;;;29.40;78.60;;;;;;5084513;28;20028;-49
2021/04/17 02:06:49;;;;;;;34.22;9.05;;;29.50;78.50;;;;;;5065656;28;20186;-45
2021/04/17 02:09:18;;;;;;;43.25;10.77;;;29.50;79.50;;;;;;5083920;28;20044;-46
2021/04/17 02:11:45;;;;;;;25.92;8.68;;;29.50;82.20;;;;;;5065733;28;20012;-47
2021/04/17 02:14:15;;;;;;;20.30;6.63;;;29.40;83.20;;;;;;5066002;28;20025;-47
2021/04/17 02:16:47;;;;;;;17.52;5.97;;;29.40;82.60;;;;;;5083770;28;20174;-49
2021/04/17 02:19:25;;;;;;;11.98;5.75;;;29.40;82.90;;;;;;5082042;28;20149;-49
2021/04/17 02:21:53;;;;;;;22.45;6.45;;;29.30;84.20;;;;;;5085857;28;20008;-47
2021/04/17 02:24:21;;;;;;;25.92;6.30;;;29.30;84.50;;;;;;5052092;28;20048;-46
2021/04/17 02:26:50;;;;;;;23.77;6.13;;;29.30;85.10;;;;;;5086630;28;20013;-49
2021/04/17 02:29:17;;;;;;;19.73;5.90;;;29.30;85.50;;;;;;5069457;28;20028;-45
2021/04/17 02:31:44;;;;;;;18.58;5.63;;;29.30;86.60;;;;;;5089504;28;20017;-55
2021/04/17 02:34:11;;;;;;;16.83;5.38;;;29.20;87.10;;;;;;5086939;28;20017;-46
2021/04/17 02:36:38;;;;;;;15.05;5.47;;;29.20;86.80;;;;;;5086499;28;20096;-49
2021/04/17 02:39:05;;;;;;;12.85;5.38;;;29.20;87.10;;;;;;5087231;28;20024;-52
2021/04/17 02:41:32;;;;;;;13.60;5.20;;;29.10;88.20;;;;;;5072910;28;20024;-49
2021/04/17 02:43:59;;;;;;;12.82;5.18;;;29.10;88.00;;;;;;5093086;28;20024;-55
2021/04/17 02:46:26;;;;;;;13.88;6.93;;;29.10;88.00;;;;;;5086328;28;20020;-49
2021/04/17 02:48:54;;;;;;;17.65;8.70;;;29.10;88.10;;;;;;5051817;28;20036;-54
2021/04/17 02:51:21;;;;;;;12.75;7.45;;;29.10;88.00;;;;;;5086248;28;20346;-45
2021/04/17 02:53:49;;;;;;;13.80;6.50;;;29.10;88.00;;;;;;5086096;28;20028;-47
2021/04/17 02:56:16;;;;;;;11.80;6.40;;;29.10;88.10;;;;;;5086009;28;20059;-45
2021/04/17 02:58:42;;;;;;;14.82;6.50;;;29.10;87.90;;;;;;5086252;28;20028;-49
2021/04/17 03:01:09;;;;;;;16.13;6.03;;;29.10;87.90;;;;;;5068540;28;20032;-48
2021/04/17 03:03:36;;;;;;;12.85;8.68;;;29.00;87.70;;;;;;5086065;28;20028;-45
2021/04/17 03:06:03;;;;;;;13.73;9.05;;;29.10;87.70;;;;;;5068091;28;20012;-45
2021/04/17 03:08:29;;;;;;;15.88;7.00;;;29.00;87.60;;;;;;5068109;28;20063;-51
2021/04/17 03:10:56;;;;;;;13.98;6.22;;;29.00;87.60;;;;;;5085734;28;20016;-44
2021/04/17 03:13:23;;;;;;;8.73;5.25;;;28.90;87.00;;;;;;5085995;28;20024;-51
2021/04/17 03:15:49;;;;;;;6.93;4.72;;;29.00;87.00;;;;;;5085938;28;20027;-50
2021/04/17 03:18:16;;;;;;;8.07;4.18;;;28.90;86.90;;;;;;5085698;28;20036;-52
2021/04/17 03:20:42;;;;;;;8.50;4.38;;;28.90;87.00;;;;;;5085767;28;20116;-46
2021/04/17 03:23:09;;;;;;;9.15;4.03;;;28.90;86.90;;;;;;5085577;28;20052;-48
2021/04/17 03:25:35;;;;;;;8.48;3.60;;;28.90;86.80;;;;;;5084617;28;20029;-49
2021/04/17 03:28:02;;;;;;;6.45;3.15;;;28.90;87.20;;;;;;5071876;28;20024;-47
2021/04/17 03:30:29;;;;;;;8.90;3.42;;;28.80;86.60;;;;;;5102173;28;20012;-52
2021/04/17 03:33:00;;;;;;;6.07;2.72;;;28.80;86.20;;;;;;5085523;28;20036;-49
2021/04/17 03:35:30;;;;;;;12.13;3.35;;;28.80;86.00;;;;;;5085421;28;20032;-54
2021/04/17 03:37:57;;;;;;;6.47;2.70;;;28.80;86.00;;;;;;5067679;28;20032;-44
2021/04/17 03:40:25;;;;;;;6.82;2.63;;;28.80;86.10;;;;;;5085394;28;20028;-45
2021/04/17 03:42:52;;;;;;;7.50;2.60;;;28.70;85.50;;;;;;5085119;28;20013;-47
2021/04/17 03:45:19;;;;;;;9.63;2.60;;;28.70;86.30;;;;;;5085312;28;20069;-53
2021/04/17 03:47:46;;;;;;;6.30;2.60;;;28.70;85.70;;;;;;5085041;28;20021;-52
2021/04/17 03:50:13;;;;;;;7.85;2.45;;;28.70;86.30;;;;;;5085267;28;20024;-48
2021/04/17 03:52:41;;;;;;;6.45;2.30;;;28.60;86.30;;;;;;5084951;28;20103;-53
2021/04/17 03:55:11;;;;;;;5.85;2.28;;;28.60;86.80;;;;;;5084931;28;20043;-46
2021/04/17 03:57:39;;;;;;;7.70;2.83;;;28.60;86.60;;;;;;5084950;28;20016;-47
2021/04/17 04:00:07;;;;;;;6.55;2.75;;;28.60;86.70;;;;;;5084975;28;20328;-55
2021/04/17 04:02:35;;;;;;;3.45;2.17;;;28.60;86.70;;;;;;5067301;28;20129;-42
2021/04/17 04:05:03;;;;;;;6.95;2.67;;;28.60;86.30;;;;;;5085207;28;20026;-55
2021/04/17 04:07:29;;;;;;;5.22;2.80;;;28.60;86.40;;;;;;5084997;28;20025;-51
2021/04/17 04:09:56;;;;;;;7.93;3.13;;;28.50;86.50;;;;;;5085059;28;20063;-52
2021/04/17 04:12:22;;;;;;;6.00;3.00;;;28.50;86.00;;;;;;5084730;28;20313;-54
2021/04/17 04:14:49;;;;;;;9.15;2.90;;;28.50;85.70;;;;;;5067150;28;20032;-49
2021/04/17 04:17:17;;;;;;;6.90;2.83;;;28.50;85.20;;;;;;5084876;28;20035;-51
2021/04/17 04:19:44;;;;;;;9.30;3.30;;;28.50;85.30;;;;;;5084837;28;20048;-47
2021/04/17 04:22:11;;;;;;;6.22;2.83;;;28.50;85.50;;;;;;5084421;28;20032;-48
2021/04/17 04:24:39;;;;;;;8.05;2.90;;;28.40;85.30;;;;;;5066665;28;20066;-47
2021/04/17 04:27:06;;;;;;;4.95;2.67;;;28.40;85.40;;;;;;5084376;28;20031;-54
2021/04/17 04:29:33;;;;;;;9.68;2.95;;;28.40;85.40;;;;;;5084691;28;20024;-49
2021/04/17 04:32:00;;;;;;;6.05;2.78;;;28.40;85.50;;;;;;5084509;28;20017;-44
2021/04/17 04:34:26;;;;;;;5.78;2.85;;;28.40;85.50;;;;;;5084611;28;20024;-46
2021/04/17 04:36:53;;;;;;;6.78;3.03;;;28.40;85.80;;;;;;5084362;28;20012;-57
2021/04/17 04:39:20;;;;;;;4.60;2.85;;;28.40;85.60;;;;;;5084265;28;20028;-48
2021/04/17 04:41:47;;;;;;;4.40;2.42;;;28.40;85.10;;;;;;5084118;28;20088;-59
2021/04/17 04:44:14;;;;;;;4.47;2.75;;;28.40;85.10;;;;;;5084100;28;20087;-52
2021/04/17 04:46:40;;;;;;;9.07;2.60;;;28.40;85.20;;;;;;5084337;28;20255;-49
2021/04/17 04:49:07;;;;;;;7.40;2.80;;;28.40;84.70;;;;;;5084463;28;20024;-45
2021/04/17 04:51:34;;;;;;;4.47;2.97;;;28.40;85.10;;;;;;5084119;28;20081;-47
2021/04/17 04:54:00;;;;;;;6.82;2.72;;;28.30;84.60;;;;;;5084392;28;20313;-47
2021/04/17 04:56:27;;;;;;;8.20;3.90;;;28.30;84.20;;;;;;5084195;28;20028;-50
2021/04/17 04:58:53;;;;;;;17.40;5.93;;;28.30;84.70;;;;;;5084234;28;20204;-46
2021/04/17 05:01:20;;;;;;;18.45;6.80;;;28.20;85.60;;;;;;5083915;28;20024;-49
2021/04/17 05:03:47;;;;;;;22.38;8.18;;;28.20;86.10;;;;;;5083949;28;20297;-45
2021/04/17 05:06:13;;;;;;;17.60;6.68;;;28.10;87.40;;;;;;5065893;28;20013;-50
2021/04/17 05:08:40;;;;;;;15.75;7.00;;;28.10;88.20;;;;;;5084069;28;20020;-46
2021/04/17 05:11:06;;;;;;;14.60;6.72;;;28.00;88.80;;;;;;5083637;28;20039;-47
2021/04/17 05:13:33;;;;;;;13.63;5.78;;;28.00;89.20;;;;;;5083902;28;20034;-46
2021/04/17 05:15:59;;;;;;;118.85;11.20;;;28.00;89.00;;;;;;5083573;28;20021;-45
2021/04/17 05:18:26;;;;;;;11.98;5.18;;;28.00;89.00;;;;;;5083678;28;20213;-46
2021/04/17 05:20:52;;;;;;;12.30;4.80;;;28.00;89.40;;;;;;5083412;28;20048;-47
2021/04/17 05:23:19;;;;;;;12.90;4.72;;;28.00;89.50;;;;;;5083533;28;20029;-46
2021/04/17 05:25:46;;;;;;;8.45;4.35;;;28.00;89.10;;;;;;5083512;28;20024;-49
2021/04/17 05:28:13;;;;;;;11.48;4.60;;;28.00;89.20;;;;;;5065860;28;20025;-45
2021/04/17 05:30:40;;;;;;;7.47;3.50;;;27.90;88.70;;;;;;5083660;28;20028;-46
2021/04/17 05:33:07;;;;;;;8.48;3.90;;;27.90;88.40;;;;;;5083598;28;20025;-54
2021/04/17 05:35:33;;;;;;;7.32;4.03;;;27.90;88.30;;;;;;5083626;28;20035;-48
2021/04/17 05:38:00;;;;;;;6.93;3.45;;;27.80;88.30;;;;;;5083710;28;20071;-50
2021/04/17 05:40:27;;;;;;;4.97;3.03;;;27.80;88.30;;;;;;5083326;28;20024;-45
2021/04/17 05:42:54;;;;;;;5.07;3.08;;;27.80;88.30;;;;;;5083330;28;20028;-47
2021/04/17 05:45:20;;;;;;;7.85;4.25;;;27.80;88.40;;;;;;5083520;28;20020;-48
2021/04/17 05:47:47;;;;;;;7.57;4.20;;;27.80;88.30;;;;;;5083345;28;20012;-48
2021/04/17 05:50:14;;;;;;;6.85;3.90;;;27.70;88.50;;;;;;5083358;28;20028;-43
2021/04/17 05:52:40;;;;;;;5.65;3.55;;;27.70;88.80;;;;;;5083472;28;20043;-44
2021/04/17 05:55:09;;;;;;;11.32;5.15;;;27.70;88.70;;;;;;5083246;28;20081;-43
2021/04/17 05:57:36;;;;;;;11.85;5.88;;;27.70;88.50;;;;;;5086421;28;20265;-43
2021/04/17 06:00:05;;;;;;;9.95;5.30;;;27.60;88.40;;;;;;5087654;28;20228;-45
2021/04/17 06:02:31;;;;;;;10.52;4.65;;;27.60;88.60;;;;;;5086847;28;20239;-50
2021/04/17 06:04:58;;;;;;;10.00;5.00;;;27.60;88.70;;;;;;5087626;28;20025;-45
2021/04/17 06:07:24;;;;;;;12.30;5.25;;;27.60;88.80;;;;;;5086971;28;20024;-51
2021/04/17 06:09:51;;;;;;;8.45;4.57;;;27.60;89.30;;;;;;5087281;28;20024;-52
2021/04/17 06:12:18;;;;;;;10.27;4.60;;;27.60;89.00;;;;;;5086971;28;20043;-57
2021/04/17 06:14:44;;;;;;;7.03;3.95;;;27.60;89.00;;;;;;5087398;28;20032;-47
2021/04/17 06:17:11;;;;;;;8.30;4.93;;;27.60;89.20;;;;;;5086802;28;20055;-46
2021/04/17 06:19:38;;;;;;;6.88;3.92;;;27.50;89.60;;;;;;5087109;28;20318;-57
2021/04/17 06:22:05;;;;;;;9.23;3.90;;;27.50;89.50;;;;;;5086888;28;20299;-51
2021/04/17 06:24:31;;;;;;;8.25;3.50;;;27.50;89.60;;;;;;5087107;28;20028;-48
2021/04/17 06:26:58;;;;;;;13.68;4.70;;;27.50;89.80;;;;;;5086713;28;20028;-45
2021/04/17 06:29:24;;;;;;;11.90;4.18;;;27.40;89.70;;;;;;5087045;28;20047;-52
2021/04/17 06:31:51;;;;;;;10.45;4.13;;;27.40;89.60;;;;;;5068761;28;20240;-54
2021/04/17 06:34:18;;;;;;;15.65;4.65;;;27.40;89.10;;;;;;5086791;28;20020;-51
2021/04/17 06:36:44;;;;;;;16.73;4.20;;;27.30;88.70;;;;;;5086544;28;20024;-55
2021/04/17 06:39:11;;;;;;;15.75;4.05;;;27.20;88.00;;;;;;5086821;28;20028;-47
2021/04/17 06:41:41;;;;;;;9.02;3.28;;;27.10;87.60;;;;;;5086376;28;20043;-48
2021/04/17 06:44:08;;;;;;;8.27;2.95;;;27.10;87.60;;;;;;5086540;28;20063;-48
2021/04/17 06:46:39;;;;;;;9.40;2.50;;;27.10;87.50;;;;;;5086433;28;20017;-53
2021/04/17 06:49:07;;;;;;;8.13;2.45;;;27.00;87.40;;;;;;5086297;28;20039;-47
2021/04/17 06:51:37;;;;;;;5.68;1.92;;;27.00;87.20;;;;;;5086223;28;20016;-50
2021/04/17 06:54:06;;;;;;;7.05;2.25;;;27.00;87.30;;;;;;5086364;28;20028;-51
2021/04/17 06:56:33;;;;;;;7.13;1.88;;;26.90;87.40;;;;;;5086101;28;20020;-50
2021/04/17 06:59:00;;;;;;;5.68;1.88;;;26.90;87.40;;;;;;5086448;28;20028;-49
2021/04/17 07:01:29;;;;;;;2.60;1.33;;;26.90;87.70;;;;;;5085935;28;20024;-48
2021/04/17 07:03:58;;;;;;;4.60;1.45;;;26.90;87.70;;;;;;5086153;28;20054;-46
2021/04/17 07:06:25;;;;;;;3.33;1.35;;;26.90;87.70;;;;;;5085941;28;20016;-47
2021/04/17 07:08:52;;;;;;;4.32;1.35;;;26.90;87.70;;;;;;5085612;28;20028;-49
2021/04/17 07:11:18;;;;;;;1.90;1.30;;;26.90;87.50;;;;;;5085827;28;20062;-51
2021/04/17 07:14:03;;;;;;;2.22;1.10;;;26.80;87.30;;;;;;5086132;28;20035;-46
2021/04/17 07:16:30;;;;;;;3.22;1.40;;;26.80;87.50;;;;;;5085840;28;20016;-63
2021/04/17 07:18:57;;;;;;;3.35;1.30;;;26.80;87.40;;;;;;5086128;28;20028;-52
2021/04/17 07:21:27;;;;;;;3.13;1.27;;;26.80;87.50;;;;;;5085444;28;20077;-48
2021/04/17 07:23:54;;;;;;;3.78;1.48;;;26.80;87.40;;;;;;5085843;28;20070;-45
2021/04/17 07:26:21;;;;;;;3.90;1.30;;;26.80;87.50;;;;;;5085650;28;20027;-44
2021/04/17 07:29:17;;;;;;;4.32;1.70;;;26.80;87.60;;;;;;5085741;28;20092;-46
2021/04/17 07:31:51;;;;;;;3.33;1.60;;;26.80;87.70;;;;;;5085451;28;20079;-48
2021/04/17 07:34:26;;;;;;;3.10;1.80;;;26.80;87.90;;;;;;5085768;28;20017;-50
2021/04/17 07:36:55;;;;;;;2.60;1.60;;;26.80;88.10;;;;;;5085442;28;20012;-55
2021/04/17 07:39:37;;;;;;;2.25;1.50;;;26.80;88.10;;;;;;5085428;28;20035;-54
2021/04/17 07:42:05;;;;;;;;;;;26.80;88.10;;;;;;5085555;28;20023;-49
2021/04/17 07:44:37;;;;;;;1.30;1.20;;;26.80;88.20;;;;;;5085493;28;20189;-47
2021/04/17 07:47:05;;;;;;;1.90;1.40;;;26.80;88.30;;;;;;5085201;28;20182;-43
2021/04/17 07:49:32;;;;;;;4.55;1.70;;;26.70;88.50;;;;;;5085024;28;20036;-44
2021/04/17 07:52:09;;;;;;;3.97;1.83;;;26.70;88.50;;;;;;5085162;28;20092;-55
2021/04/17 07:54:52;;;;;;;3.08;1.55;;;26.70;88.50;;;;;;5085005;28;20105;-54
2021/04/17 07:57:19;;;;;;;4.35;1.85;;;26.70;88.60;;;;;;5084877;28;20016;-45
2021/04/17 07:59:47;;;;;;;2.80;1.70;;;26.70;88.60;;;;;;5085397;28;20028;-49
2021/04/17 08:02:15;;;;;;;3.13;1.70;;;26.70;88.60;;;;;;5084767;28;20047;-51
2021/04/17 08:04:47;;;;;;;4.10;1.83;;;26.70;88.70;;;;;;5085143;28;20043;-47
2021/04/17 08:07:14;;;;;;;4.00;1.77;;;26.70;88.50;;;;;;5084781;28;20375;-45
2021/04/17 08:09:42;;;;;;;2.78;1.65;;;26.70;88.50;;;;;;5085084;28;20032;-47
2021/04/17 08:12:11;;;;;;;8.15;1.73;;;26.70;88.50;;;;;;5084572;28;20205;-48
2021/04/17 08:14:38;;;;;;;2.92;1.70;;;26.70;88.50;;;;;;5085016;28;20122;-52
2021/04/17 08:17:05;;;;;;;4.38;1.52;;;26.70;88.50;;;;;;5084613;28;20031;-46
2021/04/17 08:19:32;;;;;;;3.50;1.98;;;26.60;88.50;;;;;;5084062;28;20050;-44
2021/04/17 08:21:58;;;;;;;4.45;1.77;;;26.60;88.70;;;;;;5084342;28;20029;-45
2021/04/17 08:24:28;;;;;;;9.20;2.10;;;26.60;88.70;;;;;;5066795;28;20295;-49
2021/04/17 08:26:57;;;;;;;10.57;2.35;;;26.70;88.50;;;;;;5084487;28;20079;-52
2021/04/17 08:29:56;;;;;;;15.05;2.50;;;26.60;88.30;;;;;;5084657;28;20054;-44
2021/04/17 08:32:33;;;;;;;4.35;2.20;;;26.60;88.40;;;;;;5051318;28;20244;-49
2021/04/17 08:35:23;;;;;;;7.03;2.17;;;26.60;88.40;;;;;;5084728;28;20118;-48
2021/04/17 08:37:53;;;;;;;5.55;2.20;;;26.60;88.40;;;;;;5084160;28;20217;-49
2021/04/17 08:40:38;;;;;;;7.40;1.95;;;26.50;88.50;;;;;;5084009;28;20019;-49
2021/04/17 08:43:08;;;;;;;5.68;2.20;;;26.50;88.60;;;;;;5083987;28;20257;-52
2021/04/17 08:45:35;;;;;;;3.55;1.67;;;26.50;88.60;;;;;;5084191;28;20021;-51
2021/04/17 08:48:04;;;;;;;6.22;1.70;;;26.50;88.50;;;;;;5084073;28;20024;-48
2021/04/17 08:50:40;;;;;;;3.08;1.63;;;26.50;88.60;;;;;;5084062;28;20340;-45
2021/04/17 08:53:17;;;;;;;3.95;1.58;;;26.50;88.60;;;;;;5083927;28;20377;-44
2021/04/17 08:55:49;;;;;;;2.38;1.45;;;26.50;88.50;;;;;;5084031;28;20376;-48
2021/04/17 08:58:20;;;;;;;3.35;1.50;;;26.40;88.40;;;;;;5083858;28;20304;-48
2021/04/17 09:00:53;;;;;;;2.72;1.02;;;26.40;88.40;;;;;;5084136;28;20024;-47
2021/04/17 09:03:39;;;;;;;3.13;1.35;;;26.40;88.40;;;;;;5083985;28;20052;-56
2021/04/17 09:06:28;;;;;;;3.10;1.30;;;26.40;88.30;;;;;;5083968;28;20039;-46
2021/04/17 09:09:16;;;;;;;4.95;1.55;;;26.40;88.40;;;;;;5073360;28;20036;-42
2021/04/17 09:11:52;;;;;;;2.78;1.40;;;26.40;88.10;;;;;;5083774;28;20012;-45
2021/04/17 09:14:29;;;;;;;3.33;1.52;;;26.40;88.10;;;;;;5084040;28;20055;-48
2021/04/17 09:16:57;;;;;;;1.70;1.23;;;26.40;88.10;;;;;;5083744;28;20044;-47
2021/04/17 09:19:39;;;;;;;1.88;1.40;;;26.40;87.90;;;;;;5065901;28;20130;-50
2021/04/17 09:22:28;;;;;;;4.43;1.52;;;26.30;87.60;;;;;;5084107;28;20044;-44
2021/04/17 09:24:55;;;;;;;2.83;1.60;;;26.30;87.50;;;;;;5066084;28;20031;-45
2021/04/17 09:27:28;;;;;;;3.88;1.38;;;26.30;87.60;;;;;;5083615;28;20020;-46
2021/04/17 09:30:15;;;;;;;2.55;1.58;;;26.40;87.60;;;;;;5083444;28;20047;-44
2021/04/17 09:32:47;;;;;;;2.55;1.40;;;26.40;87.80;;;;;;5087196;28;20020;-48
2021/04/17 09:35:23;;;;;;;3.60;1.20;;;26.30;88.20;;;;;;5087675;28;20035;-53
2021/04/17 09:38:07;;;;;;;2.30;1.60;;;26.30;87.80;;;;;;5087857;28;20027;-47
2021/04/17 09:40:34;;;;;;;3.30;1.55;;;26.30;87.60;;;;;;5087571;28;20399;-50
2021/04/17 09:43:01;;;;;;;3.28;1.80;;;26.30;87.60;;;;;;5087645;28;20048;-59
2021/04/17 09:45:39;;;;;;;3.78;1.70;;;26.30;88.00;;;;;;5087552;28;20074;-52
2021/04/17 09:48:09;;;;;;;3.35;1.60;;;26.30;88.00;;;;;;5087453;28;20244;-52
2021/04/17 09:50:37;;;;;;;2.17;1.63;;;26.30;88.00;;;;;;5087397;28;20386;-45
2021/04/17 09:53:15;;;;;;;4.13;1.70;;;26.30;88.20;;;;;;5087303;28;20024;-58
2021/04/17 09:55:48;;;;;;;3.22;1.58;;;26.30;88.20;;;;;;5087265;28;20050;-52
2021/04/17 09:58:41;;;;;;;3.95;2.08;;;26.30;88.50;;;;;;5087164;28;20028;-51
2021/04/17 10:01:14;;;;;;;3.38;1.67;;;26.20;88.40;;;;;;5087245;28;20029;-48
2021/04/17 10:03:49;;;;;;;5.20;1.45;;;26.20;88.30;;;;;;5087051;28;20067;-48
2021/04/17 10:06:28;;;;;;;2.65;1.70;;;26.20;88.30;;;;;;5087053;28;20055;-50
2021/04/17 10:08:56;;;;;;;2.15;1.60;;;26.20;88.30;;;;;;5087108;28;20044;-48
2021/04/17 10:11:28;;;;;;;1.90;1.50;;;26.20;88.20;;;;;;5087000;28;20043;-52
2021/04/17 10:13:55;;;;;;;2.13;1.25;;;26.30;88.30;;;;;;5087115;28;20035;-49
2021/04/17 10:16:42;;;;;;;3.20;1.55;;;26.20;88.40;;;;;;5086846;28;20321;-51
2021/04/17 10:19:15;;;;;;;4.57;1.60;;;26.20;88.60;;;;;;5087152;28;20024;-44
2021/04/17 10:21:45;;;;;;;3.38;1.65;;;26.20;88.40;;;;;;5086737;28;20048;-53
2021/04/17 10:24:28;;;;;;;3.70;1.73;;;26.20;88.50;;;;;;5086672;28;20024;-56
2021/04/17 10:27:03;;;;;;;3.40;1.58;;;26.20;88.50;;;;;;5086675;28;20240;-53
2021/04/17 10:29:51;;;;;;;4.00;1.75;;;26.20;88.70;;;;;;5087024;28;20055;-58
2021/04/17 10:32:29;;;;;;;5.55;2.53;;;26.20;88.40;;;;;;5086517;28;20233;-49
2021/04/17 10:35:08;;;;;;;7.28;2.15;;;26.20;88.80;;;;;;5087167;28;20027;-48
2021/04/17 10:37:50;;;;;;;3.10;1.70;;;26.20;88.80;;;;;;5086387;28;20020;-44
2021/04/17 10:40:19;;;;;;;2.70;1.70;;;26.20;88.80;;;;;;5086349;28;20100;-52
2021/04/17 10:42:52;;;;;;;5.82;2.30;;;26.20;88.50;;;;;;5085705;28;20036;-48
2021/04/17 10:45:23;;;;;;;7.03;2.55;;;26.20;88.70;;;;;;5086266;28;20190;-48
2021/04/17 10:48:02;;;;;;;8.32;2.50;;;26.20;89.30;;;;;;5086311;28;20061;-46
2021/04/17 10:50:35;;;;;;;8.68;2.30;;;26.10;89.50;;;;;;5068400;28;20213;-55
2021/04/17 10:53:04;;;;;;;;;;;26.10;89.80;;;;;;5086524;28;20024;-45
2021/04/17 10:55:36;;;;;;;5.18;2.30;;;26.10;89.90;;;;;;5086573;28;20129;-53
2021/04/17 10:58:03;;;;;;;;;;;26.10;90.10;;;;;;5086661;28;20028;-48
2021/04/17 11:00:33;;;;;;;6.28;2.33;;;26.00;90.20;;;;;;5085931;28;19901;-42
2021/04/17 11:03:00;;;;;;;6.03;2.50;;;26.00;90.20;;;;;;5086201;28;20309;-44
2021/04/17 11:05:34;;;;;;;5.78;2.47;;;26.00;90.40;;;;;;5086181;28;20293;-48
2021/04/17 11:08:02;;;;;;;6.38;3.42;;;26.00;90.50;;;;;;5085975;28;20036;-44
2021/04/17 11:10:34;;;;;;;8.88;4.80;;;26.00;90.50;;;;;;5086044;28;20017;-45
2021/04/17 11:13:04;;;;;;;9.27;4.00;;;26.00;90.60;;;;;;5085823;28;20043;-43
2021/04/17 11:15:32;;;;;;;5.50;3.13;;;26.00;90.80;;;;;;5085735;28;20020;-42
2021/04/17 11:18:19;;;;;;;8.55;3.67;;;26.00;90.80;;;;;;5085680;28;20043;-47
2021/04/17 11:20:56;;;;;;;8.65;3.30;;;26.00;91.00;;;;;;5085461;28;20052;-48
2021/04/17 11:23:31;;;;;;;11.82;3.00;;;26.00;91.10;;;;;;5085404;28;20321;-52
2021/04/17 11:25:59;;;;;;;8.43;3.47;;;26.00;91.10;;;;;;5067828;28;20096;-54
2021/04/17 11:28:27;;;;;;;5.40;2.80;;;26.00;91.00;;;;;;5085856;28;20221;-47
2021/04/17 11:30:57;;;;;;;5.80;2.70;;;25.90;91.10;;;;;;5085336;28;20023;-46
2021/04/17 11:33:24;;;;;;;25.67;2.97;;;25.90;91.10;;;;;;5085549;28;20036;-45
2021/04/17 11:35:52;;;;;;;14.55;2.70;;;25.80;91.20;;;;;;5085376;28;20062;-48
2021/04/17 11:38:18;;;;;;;12.63;2.55;;;25.90;91.20;;;;;;5085253;28;20130;-47
2021/04/17 11:40:45;;;;;;;4.05;2.33;;;25.90;91.10;;;;;;5085255;28;20335;-53
2021/04/17 11:43:12;;;;;;;9.57;2.30;;;25.90;91.20;;;;;;5085105;28;20032;-54
2021/04/17 11:45:39;;;;;;;8.15;2.40;;;26.00;91.30;;;;;;5085183;28;20078;-53
2021/04/17 11:48:06;;;;;;;6.28;2.10;;;26.00;91.10;;;;;;5085271;28;20082;-53
2021/04/17 11:50:34;;;;;;;4.10;2.20;;;26.00;91.20;;;;;;5085258;28;20027;-58
2021/04/17 11:53:01;;;;;;;5.78;2.10;;;26.00;91.20;;;;;;5084750;28;20044;-56
2021/04/17 11:55:28;;;;;;;5.30;3.03;;;26.00;91.30;;;;;;5084241;28;20321;-54
2021/04/17 11:57:54;;;;;;;4.32;3.05;;;26.10;91.30;;;;;;5084967;28;20027;-52
2021/04/17 12:00:21;;;;;;;3.97;2.78;;;26.20;91.40;;;;;;5084817;28;20020;-47
2021/04/17 12:02:48;;;;;;;5.15;2.70;;;26.30;91.50;;;;;;5084705;28;20020;-52
2021/04/17 12:05:15;;;;;;;6.10;2.78;;;26.40;91.50;;;;;;5084805;28;20262;-55
2021/04/17 12:07:41;;;;;;;5.53;2.90;;;26.50;91.60;;;;;;5084516;28;20017;-45
2021/04/17 12:10:09;;;;;;;6.88;2.45;;;26.60;91.50;;;;;;5084751;28;20016;-47
2021/04/17 12:12:36;;;;;;;6.25;2.70;;;26.70;91.40;;;;;;5067064;28;20063;-47
2021/04/17 12:15:03;;;;;;;5.78;2.80;;;26.70;91.20;;;;;;5085021;28;20087;-49
2021/04/17 12:17:30;;;;;;;8.15;3.10;;;26.80;91.30;;;;;;5084550;28;20016;-57
2021/04/17 12:19:58;;;;;;;4.82;2.47;;;26.90;91.30;;;;;;5084748;28;20276;-45
2021/04/17 12:22:26;;;;;;;4.70;3.05;;;27.00;91.00;;;;;;5084242;28;20020;-51
2021/04/17 12:24:53;;;;;;;5.47;2.80;;;27.10;90.90;;;;;;5066949;28;20309;-48
2021/04/17 12:27:20;;;;;;;6.32;2.42;;;27.20;90.70;;;;;;5084619;28;20023;-53
2021/04/17 12:29:47;;;;;;;6.65;2.90;;;27.20;90.40;;;;;;5084618;28;20354;-51
2021/04/17 12:32:14;;;;;;;4.38;2.50;;;27.30;90.30;;;;;;5084354;28;20290;-44
2021/04/17 12:34:41;;;;;;;6.32;2.80;;;27.30;90.20;;;;;;5084732;28;20024;-47
2021/04/17 12:37:07;;;;;;;7.10;2.97;;;27.30;90.30;;;;;;5084484;28;20364;-50
2021/04/17 12:39:34;;;;;;;7.75;2.88;;;27.30;90.30;;;;;;5084667;28;20047;-46
2021/04/17 12:42:01;;;;;;;7.35;2.85;;;27.40;90.20;;;;;;5084332;28;20061;-46
2021/04/17 12:44:27;;;;;;;8.43;3.20;;;27.30;90.50;;;;;;5084400;28;20025;-48
2021/04/17 12:46:54;;;;;;;10.82;3.33;;;27.30;90.40;;;;;;5084107;28;20080;-45
2021/04/17 12:49:20;;;;;;;7.32;3.13;;;27.30;90.40;;;;;;5084497;28;20309;-45
2021/04/17 12:51:47;;;;;;;9.18;3.13;;;27.30;90.70;;;;;;5083975;28;20024;-47
2021/04/17 12:54:14;;;;;;;5.30;3.22;;;27.30;90.70;;;;;;5083792;28;20024;-52
2021/04/17 12:56:40;;;;;;;6.57;3.38;;;27.20;90.50;;;;;;5084117;28;20020;-45